Time;durP1;ratioP1;P1;durP2;ratioP2;P2;SDS_P1;SDS_P2;PMS_P1;PMS_P2;Temp;Humidity;BMP_temperature;BMP_pressure;BME280_temperature;BME280_humidity;BME280_pressure;Samples;Min_cycle;Max_cycle;Signal;HPM_P1;HPM_P2
2022/05/09 00:01:46;;;;;;;10.40;7.50;;;;;;;12.29;52.90;102528.28;5079889;28;20187;-73
2022/05/09 00:04:12;;;;;;;8.40;5.50;;;;;;;12.36;53.01;102524.13;5079155;28;20512;-76
2022/05/09 00:06:37;;;;;;;7.60;5.00;;;;;;;12.38;50.51;102521.53;5080385;28;20252;-76
2022/05/09 00:09:03;;;;;;;8.80;5.80;;;;;;;12.58;51.29;102525.69;5079383;28;20188;-78
2022/05/09 00:11:28;;;;;;;11.40;5.90;;;;;;;12.53;51.80;102526.34;5079724;28;20283;-77
2022/05/09 00:13:54;;;;;;;8.87;5.23;;;;;;;12.42;52.53;102523.41;5080649;28;20416;-77
2022/05/09 00:16:20;;;;;;;9.33;5.10;;;;;;;11.59;52.57;102529.44;5079912;28;20177;-77
2022/05/09 00:18:46;;;;;;;9.13;5.77;;;;;;;12.20;52.22;102527.09;5080073;28;20439;-76
2022/05/09 00:21:11;;;;;;;5.93;4.63;;;;;;;12.29;50.26;102525.66;5061581;28;20439;-76
2022/05/09 00:23:36;;;;;;;6.67;4.80;;;;;;;12.27;50.21;102521.22;5059696;28;20178;-77
2022/05/09 00:26:02;;;;;;;8.80;5.30;;;;;;;11.82;50.90;102532.81;5059862;28;20201;-77
2022/05/09 00:28:28;;;;;;;8.67;4.60;;;;;;;11.87;52.10;102527.75;5060383;28;20185;-76
2022/05/09 00:30:56;;;;;;;10.53;4.70;;;;;;;11.42;52.39;102526.22;5059570;28;20177;-76
2022/05/09 00:33:25;;;;;;;6.23;4.00;;;;;;;11.48;53.27;102525.56;5076883;28;20438;-76
2022/05/09 00:35:51;;;;;;;6.77;5.10;;;;;;;12.02;52.24;102524.78;5079978;28;20421;-76
2022/05/09 00:38:17;;;;;;;7.80;4.70;;;;;;;11.87;51.39;102527.75;5078830;28;20801;-75
2022/05/09 00:41:28;;;;;;;8.03;4.30;;;;;;;12.19;50.48;102528.84;5078732;28;20173;-77
2022/05/09 00:43:33;;;;;;;8.40;4.43;;;;;;;12.27;49.94;102527.34;5076492;28;20181;-77
2022/05/09 00:45:58;;;;;;;9.73;4.70;;;;;;;11.99;50.86;102533.41;5058585;28;20474;-78
2022/05/09 00:48:24;;;;;;;6.40;4.43;;;;;;;12.07;50.69;102534.56;5060223;28;20499;-76
2022/05/09 00:50:49;;;;;;;8.83;4.40;;;;;;;11.59;50.61;102529.44;5059160;28;20498;-76
2022/05/09 00:53:15;;;;;;;3.90;3.50;;;;;;;11.41;52.01;102541.00;5072960;28;20259;-76
2022/05/09 00:55:45;;;;;;;5.90;3.70;;;;;;;11.31;51.60;102545.84;5079529;28;20180;-77
2022/05/09 00:58:25;;;;;;;8.80;4.60;;;;;;;11.88;50.94;102542.59;5079226;28;20169;-76
2022/05/09 01:00:51;;;;;;;7.20;4.27;;;;;;;11.32;51.37;102545.03;5071079;28;20435;-78
2022/05/09 01:03:20;;;;;;;5.90;4.00;;;;;;;11.23;51.66;102543.88;5058350;28;20651;-77
2022/05/09 01:05:50;;;;;;;7.23;4.23;;;;;;;11.40;51.51;102539.22;5059272;28;20444;-77
2022/05/09 01:08:19;;;;;;;5.90;3.90;;;;;;;11.69;50.23;102538.47;5058947;28;20419;-77
2022/05/09 01:10:45;;;;;;;5.93;3.90;;;;;;;11.71;50.86;102536.81;5064371;28;20427;-76
2022/05/09 01:13:13;;;;;;;6.20;4.30;;;;;;;11.60;50.82;102534.69;5077982;28;20544;-76
2022/05/09 01:15:40;;;;;;;7.03;4.07;;;;;;;12.00;50.36;102536.91;5078519;28;20788;-77
2022/05/09 01:18:08;;;;;;;5.70;3.83;;;;;;;12.01;49.52;102538.69;5076565;28;20659;-76
2022/05/09 01:20:33;;;;;;;8.67;4.40;;;;;;;11.98;50.15;102539.47;5078651;28;20415;-77
2022/05/09 01:22:59;;;;;;;10.10;4.53;;;;;;;12.18;49.70;102539.22;5075204;28;20883;-77
2022/05/09 01:25:25;;;;;;;6.40;4.27;;;;;;;11.71;50.61;102534.19;5058740;28;20186;-77
2022/05/09 01:27:50;;;;;;;6.50;4.43;;;;;;;12.03;50.53;102537.00;5058679;28;20162;-76
2022/05/09 01:30:24;;;;;;;7.53;4.20;;;;;;;11.66;50.93;102534.03;5059123;28;20810;-77
2022/05/09 01:32:52;;;;;;;7.67;4.20;;;;;;;11.86;50.85;102531.19;5059442;28;20204;-77
2022/05/09 01:35:57;;;;;;;6.30;4.10;;;;;;;12.11;50.48;102525.97;5077932;28;20411;-77
2022/05/09 01:38:31;;;;;;;7.70;4.50;;;;;;;11.82;50.88;102531.94;5078007;28;20411;-77
2022/05/09 01:40:56;;;;;;;11.40;4.40;;;;;;;11.74;51.66;102526.44;5078610;28;20428;-76
2022/05/09 01:43:40;;;;;;;7.43;4.40;;;;;;;11.63;51.76;102526.09;5072094;28;20876;-77
2022/05/09 01:46:11;;;;;;;8.17;4.00;;;;;;;12.11;50.83;102520.75;5058078;28;20222;-77
2022/05/09 01:51:21;;;;;;;7.10;4.30;;;;;;;12.33;50.43;102524.03;5058497;28;20926;-76
2022/05/09 01:53:50;;;;;;;7.80;4.53;;;;;;;11.65;51.53;102531.34;5066050;28;20401;-78
2022/05/09 01:56:17;;;;;;;7.40;4.30;;;;;;;11.69;51.53;102528.91;5078394;28;20173;-77
2022/05/09 01:58:42;;;;;;;7.07;4.23;;;;;;;11.04;53.21;102544.03;5078569;28;20412;-78
2022/05/09 02:01:08;;;;;;;10.43;4.27;;;;;;;11.73;52.05;102543.88;5078156;28;20426;-76
2022/05/09 02:03:33;;;;;;;8.27;4.70;;;;;;;11.60;52.56;102537.31;5058975;28;20272;-76
2022/05/09 02:06:00;;;;;;;8.03;4.70;;;;;;;11.63;52.35;102539.16;5058590;28;20178;-75
2022/05/09 02:08:25;;;;;;;5.93;4.43;;;;;;;11.54;52.91;102538.81;5058082;28;20170;-76
2022/05/09 02:10:50;;;;;;;5.87;3.87;;;;;;;11.61;52.57;102539.09;5057989;28;20419;-77
2022/05/09 02:13:16;;;;;;;7.10;4.30;;;;;;;11.79;52.15;102544.06;5075080;28;20203;-77
2022/05/09 02:15:41;;;;;;;6.47;4.03;;;;;;;11.27;53.24;102548.38;5078301;28;20177;-76
2022/05/09 02:18:06;;;;;;;9.70;4.47;;;;;;;10.98;53.57;102547.28;5078348;28;20169;-76
2022/05/09 02:20:32;;;;;;;8.23;3.67;;;;;;;10.91;54.46;102547.91;5078800;28;20191;-77
2022/05/09 02:22:57;;;;;;;9.93;4.77;;;;;;;11.25;53.50;102547.41;5073189;28;20177;-77
2022/05/09 02:25:31;;;;;;;6.60;4.53;;;;;;;11.43;53.22;102549.81;5077942;28;20207;-77
2022/05/09 02:28:01;;;;;;;6.90;4.33;;;;;;;11.26;53.37;102550.94;5078459;28;20169;-77
2022/05/09 02:30:26;;;;;;;7.60;4.57;;;;;;;11.23;53.44;102550.78;5078177;28;20386;-76
2022/05/09 02:32:52;;;;;;;9.50;4.70;;;;;;;11.43;53.36;102549.81;5076569;28;20467;-76
2022/05/09 02:35:19;;;;;;;7.40;4.30;;;;;;;11.41;53.37;102547.97;5078439;28;20538;-76
2022/05/09 02:37:44;;;;;;;7.40;4.30;;;;;;;11.34;53.14;102544.25;5078293;28;20182;-77
2022/05/09 02:40:10;;;;;;;8.87;4.33;;;;;;;11.20;53.42;102541.13;5077649;28;20411;-76
2022/05/09 02:42:35;;;;;;;7.70;4.40;;;;;;;11.01;54.80;102538.69;5067286;28;20169;-77
2022/05/09 02:45:02;;;;;;;4.90;4.10;;;;;;;10.84;54.48;102548.50;5056875;28;20170;-76
2022/05/09 02:47:28;;;;;;;7.23;4.30;;;;;;;11.04;54.36;102537.09;5057685;28;20217;-77
2022/05/09 02:49:53;;;;;;;7.63;4.37;;;;;;;10.98;54.35;102534.25;5058176;28;20404;-75
2022/05/09 02:52:18;;;;;;;8.67;4.80;;;;;;;11.12;53.93;102540.88;5065145;28;20283;-76
2022/05/09 02:54:44;;;;;;;6.13;4.43;;;;;;;11.24;53.95;102543.06;5077937;28;20572;-77
2022/05/09 02:57:11;;;;;;;8.43;4.33;;;;;;;11.03;53.63;102535.31;5080398;28;20175;-77
2022/05/09 02:59:36;;;;;;;6.33;3.90;;;;;;;10.77;54.81;102543.06;5080980;28;20403;-78
2022/05/09 03:02:02;;;;;;;7.10;4.60;;;;;;;11.08;54.66;102541.59;5080713;28;20840;-78
2022/05/09 03:04:40;;;;;;;5.73;4.17;;;;;;;10.68;55.12;102550.53;5082530;28;20172;-79
2022/05/09 03:07:11;;;;;;;10.37;4.50;;;;;;;11.12;54.25;102550.41;5086581;28;20161;-80
2022/05/09 03:09:37;;;;;;;6.10;4.20;;;;;;;10.90;54.85;102557.44;5085092;28;20411;-78
2022/05/09 03:12:04;;;;;;;9.67;4.57;;;;;;;10.95;55.18;102542.84;5066354;28;20478;-79
2022/05/09 03:14:30;;;;;;;9.50;4.93;;;;;;;11.14;54.37;102545.28;5062861;28;20177;-77
2022/05/09 03:16:56;;;;;;;8.03;4.57;;;;;;;10.83;55.01;102542.41;5062004;28;20820;-74
2022/05/09 03:19:21;;;;;;;9.03;4.20;;;;;;;10.95;54.25;102542.84;5061511;28;20458;-75
2022/05/09 03:21:48;;;;;;;8.40;4.83;;;;;;;11.09;54.38;102537.25;5077604;28;20245;-74
2022/05/09 03:24:13;;;;;;;10.57;5.00;;;;;;;11.15;54.36;102533.97;5071001;28;20212;-75
2022/05/09 03:26:39;;;;;;;8.43;4.90;;;;;;;11.33;53.88;102533.75;5065821;28;20417;-74
2022/05/09 03:29:04;;;;;;;5.40;4.30;;;;;;;10.90;54.83;102528.75;5070598;28;20447;-75
2022/05/09 03:31:30;;;;;;;6.03;4.53;;;;;;;11.02;54.73;102528.31;5080612;28;20212;-78
2022/05/09 03:33:55;;;;;;;7.10;5.33;;;;;;;11.10;54.76;102526.00;5080285;28;20192;-77
2022/05/09 03:36:21;;;;;;;7.37;4.27;;;;;;;10.66;56.45;102533.91;5069533;28;20427;-77
2022/05/09 03:38:46;;;;;;;7.63;5.23;;;;;;;10.44;57.46;102535.72;5081105;28;20165;-77
2022/05/09 03:41:11;;;;;;;6.37;4.30;;;;;;;10.84;56.39;102540.66;5066940;28;20192;-76
2022/05/09 03:43:36;;;;;;;7.37;4.03;;;;;;;10.72;56.97;102535.91;5075298;28;20181;-77
2022/05/09 03:46:02;;;;;;;12.60;5.67;;;;;;;10.57;57.00;102528.38;5080078;28;20228;-76
2022/05/09 03:48:28;;;;;;;8.87;4.40;;;;;;;10.85;55.87;102537.22;5062146;28;20496;-78
2022/05/09 03:50:53;;;;;;;10.77;4.23;;;;;;;10.60;56.67;102544.13;5068350;28;20175;-76
2022/05/09 03:53:18;;;;;;;9.40;4.43;;;;;;;10.93;55.73;102536.69;5067559;28;20259;-77
2022/05/09 03:55:44;;;;;;;7.10;4.47;;;;;;;10.77;55.20;102545.66;5067889;28;20226;-77
2022/05/09 03:58:09;;;;;;;9.13;5.43;;;;;;;11.26;54.14;102535.25;5080324;28;20188;-80
2022/05/09 04:00:35;;;;;;;7.40;4.60;;;;;;;11.23;53.81;102541.25;5080020;28;20569;-81
2022/05/09 04:03:01;;;;;;;5.80;4.10;;;;;;;11.52;53.05;102533.56;5081883;28;20184;-79
2022/05/09 04:05:30;;;;;;;7.33;4.40;;;;;;;11.05;54.09;102538.84;5080531;28;20208;-80
2022/05/09 04:07:57;;;;;;;8.10;4.00;;;;;;;11.35;53.29;102543.44;5080253;28;20415;-78
2022/05/09 04:10:25;;;;;;;5.83;3.87;;;;;;;10.86;54.42;102528.59;5077065;28;20833;-80
2022/05/09 04:12:51;;;;;;;5.20;3.83;;;;;;;10.73;53.92;102538.56;5060756;28;20851;-80
2022/05/09 04:18:01;;;;;;;7.00;4.17;;;;;;;12.88;48.72;102526.50;5059669;28;20449;-80
2022/05/09 04:20:29;;;;;;;5.80;3.83;;;;;;;13.50;46.52;102520.38;5076167;28;20443;-80
2022/05/09 04:22:56;;;;;;;6.50;4.57;;;;;;;14.76;44.37;102514.59;5080163;28;20561;-82
2022/05/09 04:25:22;;;;;;;6.53;4.47;;;;;;;13.97;46.45;102525.94;5080489;28;20506;-77
2022/05/09 04:27:48;;;;;;;8.27;4.67;;;;;;;15.01;43.61;102521.25;5079870;28;20847;-77
2022/05/09 04:30:16;;;;;;;7.00;3.93;;;;;;;15.79;41.97;102519.16;5077043;28;20485;-79
2022/05/09 04:32:42;;;;;;;5.90;3.53;;;;;;;17.65;44.38;102513.66;5060019;28;20694;-67
2022/05/09 04:35:14;;;;;;;7.13;3.80;;;;;;;19.14;38.55;102505.69;5059562;28;20391;-65
2022/05/09 04:37:42;;;;;;;5.53;4.13;;;;;;;20.01;34.84;102505.75;5059606;28;20223;-72
2022/05/09 04:40:08;;;;;;;10.60;4.17;;;;;;;16.05;41.09;102516.09;5073486;28;20423;-72
2022/05/09 04:42:34;;;;;;;5.57;4.30;;;;;;;16.36;40.55;102511.28;5079384;28;20553;-73
2022/05/09 04:44:59;;;;;;;8.00;4.80;;;;;;;17.09;38.84;102509.56;5079305;28;20457;-72
2022/05/09 04:47:25;;;;;;;7.03;5.00;;;;;;;17.15;38.53;102505.25;5076237;28;20225;-72
2022/05/09 04:49:50;;;;;;;6.60;4.53;;;;;;;17.50;37.60;102495.94;5066587;28;20200;-72
2022/05/09 04:52:15;;;;;;;6.53;4.20;;;;;;;17.04;38.81;102506.91;5077329;28;20204;-71
2022/05/09 04:54:42;;;;;;;5.10;4.27;;;;;;;17.62;37.22;102500.44;5078657;28;20211;-71
2022/05/09 04:57:07;;;;;;;7.10;4.67;;;;;;;16.86;38.30;102511.91;5076253;28;20435;-72
2022/05/09 04:59:32;;;;;;;11.23;4.70;;;;;;;17.15;38.34;102502.63;5075744;28;20207;-72
2022/05/09 05:01:58;;;;;;;9.10;4.70;;;;;;;17.51;37.34;102509.13;5076741;28;20193;-71
2022/05/09 05:04:23;;;;;;;4.77;4.27;;;;;;;17.40;37.49;102499.34;5078599;28;20468;-71
2022/05/09 05:06:48;;;;;;;8.17;4.33;;;;;;;18.95;34.98;102498.59;5078774;28;20189;-72
2022/05/09 05:09:14;;;;;;;5.17;4.23;;;;;;;18.38;35.62;102504.50;5072505;28;20259;-72
2022/05/09 05:11:39;;;;;;;8.50;4.60;;;;;;;18.21;34.79;102508.81;5076257;28;20552;-72
2022/05/09 05:14:04;;;;;;;7.53;4.50;;;;;;;17.22;37.18;102506.19;5077792;28;20498;-71
2022/05/09 05:19:13;;;;;;;7.63;4.70;;;;;;;18.49;35.38;102497.50;5058810;28;20199;-70
2022/05/09 05:21:41;;;;;;;7.63;4.73;;;;;;;19.63;33.10;102506.63;5059050;28;20744;-70
2022/05/09 05:24:07;;;;;;;8.60;5.20;;;;;;;18.41;35.23;102512.44;5074437;28;20204;-70
2022/05/09 05:26:32;;;;;;;7.40;4.20;;;;;;;19.95;32.67;102495.19;5078542;28;20437;-71
2022/05/09 05:28:58;;;;;;;7.37;4.50;;;;;;;18.68;33.86;102500.25;5078476;28;20277;-71
2022/05/09 05:31:23;;;;;;;7.53;4.80;;;;;;;20.26;32.21;102505.72;5069874;28;20259;-70
2022/05/09 05:33:49;;;;;;;7.10;4.63;;;;;;;19.03;34.20;102507.44;5065182;28;20205;-71
2022/05/09 05:36:15;;;;;;;7.80;4.00;;;;;;;20.44;32.15;102504.78;5071475;28;20208;-70
2022/05/09 05:38:41;;;;;;;9.60;4.57;;;;;;;18.63;34.76;102509.91;5077757;28;20184;-70
2022/05/09 05:41:07;;;;;;;9.20;5.10;;;;;;;19.39;33.42;102507.50;5079255;28;20419;-72
2022/05/09 05:43:32;;;;;;;8.67;4.40;;;;;;;18.61;35.03;102499.31;5078184;28;20333;-69
2022/05/09 05:45:57;;;;;;;7.33;4.47;;;;;;;18.05;36.07;102505.16;5078834;28;20251;-71
2022/05/09 05:48:24;;;;;;;9.57;4.80;;;;;;;18.49;34.99;102513.34;5077778;28;20214;-70
2022/05/09 05:50:50;;;;;;;7.60;5.00;;;;;;;19.74;33.76;102504.88;5078266;28;20335;-71
2022/05/09 05:53:15;;;;;;;5.87;4.23;;;;;;;19.43;34.31;102504.88;5064552;28;20570;-71
2022/05/09 05:55:40;;;;;;;6.93;4.83;;;;;;;18.52;35.19;102502.81;5058685;28;20478;-73
2022/05/09 05:58:07;;;;;;;16.70;4.80;;;;;;;19.49;33.94;102494.28;5075921;28;20189;-72
2022/05/09 06:00:32;;;;;;;7.17;4.73;;;;;;;18.09;35.41;102513.16;5072518;28;20446;-70
2022/05/09 06:02:57;;;;;;;7.23;4.73;;;;;;;18.99;34.15;102510.94;5077176;28;20438;-71
2022/05/09 06:05:23;;;;;;;7.37;4.80;;;;;;;19.72;32.81;102503.13;5063502;28;20226;-69
2022/05/09 06:07:53;;;;;;;17.47;5.53;;;;;;;20.54;32.02;102495.91;5078128;28;20191;-71
2022/05/09 06:10:18;;;;;;;8.03;4.83;;;;;;;20.14;32.69;102502.19;5078240;28;20222;-70
2022/05/09 06:12:44;;;;;;;6.13;4.90;;;;;;;19.79;33.14;102508.38;5076402;28;20458;-70
2022/05/09 06:15:25;;;;;;;7.70;4.80;;;;;;;21.35;30.73;102502.56;5057624;28;20535;-75
2022/05/09 06:17:52;;;;;;;9.03;5.10;;;;;;;21.09;30.90;102493.91;5058498;28;20463;-75
2022/05/09 06:20:18;;;;;;;19.70;6.03;;;;;;;21.48;30.47;102500.69;5058171;28;20408;-75
2022/05/09 06:22:43;;;;;;;9.17;5.47;;;;;;;21.58;30.28;102500.63;5072702;28;20442;-73
2022/05/09 06:25:12;;;;;;;13.63;5.37;;;;;;;21.45;31.11;102497.19;5075431;28;20488;-72
2022/05/09 06:27:37;;;;;;;6.90;5.20;;;;;;;22.00;29.92;102506.44;5076557;28;20181;-73
2022/05/09 06:30:05;;;;;;;6.23;5.40;;;;;;;19.75;33.38;102517.22;5078422;28;20744;-72
2022/05/09 06:32:30;;;;;;;7.33;4.77;;;;;;;21.10;30.19;102499.19;5080991;28;20188;-73
2022/05/09 06:34:55;;;;;;;8.07;5.10;;;;;;;20.15;32.30;102506.63;5082091;28;20468;-72
2022/05/09 06:37:21;;;;;;;8.93;4.53;;;;;;;21.30;30.36;102500.84;5082202;28;20531;-72
2022/05/09 06:39:46;;;;;;;12.13;5.20;;;;;;;21.36;30.93;102495.47;5080965;28;20179;-74
2022/05/09 06:42:12;;;;;;;10.13;4.50;;;;;;;19.67;32.62;102511.03;5079692;28;20215;-73
2022/05/09 06:44:37;;;;;;;8.03;4.33;;;;;;;19.51;33.44;102497.81;5081745;28;20513;-73
2022/05/09 06:47:03;;;;;;;8.33;4.60;;;;;;;18.87;34.29;102508.25;5081789;28;20270;-73
2022/05/09 06:49:29;;;;;;;8.93;4.23;;;;;;;21.02;31.46;102493.06;5081448;28;20168;-74
2022/05/09 06:51:55;;;;;;;8.27;4.40;;;;;;;21.20;31.41;102495.59;5081650;28;20458;-70
2022/05/09 06:54:21;;;;;;;8.80;4.60;;;;;;;22.51;29.50;102488.19;5081712;28;20415;-72
2022/05/09 06:56:47;;;;;;;11.40;4.80;;;;;;;21.82;30.24;102494.25;5066334;28;20260;-72
2022/05/09 06:59:13;;;;;;;9.30;5.23;;;;;;;21.70;30.73;102497.88;5079455;28;20450;-73
2022/05/09 07:01:38;;;;;;;7.10;4.63;;;;;;;21.07;32.26;102495.66;5077677;28;20555;-73
2022/05/09 07:04:04;;;;;;;6.53;4.60;;;;;;;22.95;29.34;102487.63;5081265;28;20327;-69
2022/05/09 07:06:29;;;;;;;7.93;4.70;;;;;;;21.50;30.53;102498.91;5081304;28;20248;-74
2022/05/09 07:08:55;;;;;;;8.70;4.67;;;;;;;22.79;29.63;102484.31;5081481;28;20173;-74
2022/05/09 07:11:20;;;;;;;6.27;4.40;;;;;;;23.75;27.67;102483.72;5080827;28;20165;-71
2022/05/09 07:13:45;;;;;;;6.17;4.30;;;;;;;24.43;27.02;102485.09;5081286;28;20541;-72
2022/05/09 07:16:11;;;;;;;9.67;4.93;;;;;;;23.21;29.00;102493.47;5081375;28;20248;-74
2022/05/09 07:18:38;;;;;;;16.10;5.00;;;;;;;23.36;28.46;102491.47;5078763;28;20185;-72
2022/05/09 07:21:05;;;;;;;7.27;4.70;;;;;;;22.40;30.74;102492.78;5081495;28;20411;-73
2022/05/09 07:23:30;;;;;;;7.10;4.37;;;;;;;22.59;28.06;102489.91;5080714;28;20514;-72
2022/05/09 07:25:56;;;;;;;7.97;4.73;;;;;;;23.87;27.82;102479.97;5078909;28;20518;-72
2022/05/09 07:28:22;;;;;;;7.10;4.63;;;;;;;22.77;29.58;102487.00;5063045;28;20838;-72
2022/05/09 07:30:48;;;;;;;9.47;4.60;;;;;;;24.57;26.52;102483.94;5064077;28;20204;-70
2022/05/09 07:33:15;;;;;;;9.67;4.50;;;;;;;22.02;30.11;102486.09;5079095;28;20581;-72
2022/05/09 07:35:41;;;;;;;7.63;5.50;;;;;;;23.78;28.16;102488.97;5081743;28;20418;-71
2022/05/09 07:38:07;;;;;;;7.63;4.93;;;;;;;24.76;26.76;102480.00;5081467;28;20823;-72
2022/05/09 07:40:32;;;;;;;11.50;4.93;;;;;;;23.63;28.14;102484.81;5080248;28;20464;-73
2022/05/09 07:42:58;;;;;;;5.90;4.00;;;;;;;23.04;27.38;102490.13;5080132;28;20191;-74
2022/05/09 07:45:24;;;;;;;6.90;4.07;;;;;;;23.28;27.12;102485.41;5080347;28;20558;-71
2022/05/09 07:47:49;;;;;;;7.27;4.23;;;;;;;25.05;24.60;102473.97;5079662;28;20501;-70
2022/05/09 07:50:17;;;;;;;6.87;4.50;;;;;;;24.32;26.72;102477.31;5079858;28;20180;-72
2022/05/09 07:52:42;;;;;;;7.70;4.93;;;;;;;23.39;27.93;102478.09;5076406;28;20209;-73
2022/05/09 07:55:09;;;;;;;7.80;4.70;;;;;;;22.34;28.63;102479.53;5080165;28;20434;-72
2022/05/09 07:57:36;;;;;;;10.63;4.70;;;;;;;22.72;28.78;102478.19;5081060;28;20176;-72
2022/05/09 08:00:01;;;;;;;7.80;4.60;;;;;;;23.43;28.18;102477.16;5078603;28;20870;-72
2022/05/09 08:02:27;;;;;;;6.60;4.23;;;;;;;25.00;26.24;102467.00;5078559;28;20439;-73
2022/05/09 08:04:52;;;;;;;8.73;4.60;;;;;;;23.80;27.74;102460.53;5079646;28;20188;-70
2022/05/09 08:07:18;;;;;;;9.30;4.97;;;;;;;23.67;27.27;102456.34;5080164;28;20185;-73
2022/05/09 08:09:43;;;;;;;10.57;5.20;;;;;;;23.71;28.03;102460.72;5079378;28;20199;-73
2022/05/09 08:12:09;;;;;;;6.57;4.43;;;;;;;22.65;28.58;102464.09;5078954;28;20467;-73
2022/05/09 08:14:34;;;;;;;6.63;4.90;;;;;;;21.50;30.94;102472.38;5074510;28;20181;-73
2022/05/09 08:17:02;;;;;;;9.10;4.57;;;;;;;22.13;30.43;102459.41;5079582;28;20179;-75
2022/05/09 08:19:29;;;;;;;11.37;4.90;;;;;;;23.51;28.52;102453.94;5068840;28;20268;-74
2022/05/09 08:21:55;;;;;;;9.03;4.53;;;;;;;24.87;26.29;102445.06;5067008;28;20473;-70
2022/05/09 08:24:20;;;;;;;9.00;4.70;;;;;;;23.12;27.73;102455.44;5078786;28;20443;-73
2022/05/09 08:26:46;;;;;;;9.70;6.00;;;;;;;22.74;29.07;102452.44;5079814;28;20256;-71
2022/05/09 08:29:11;;;;;;;7.03;4.50;;;;;;;21.60;30.53;102456.41;5074295;28;20185;-70
2022/05/09 08:31:37;;;;;;;7.43;4.40;;;;;;;21.38;30.56;102451.25;5078486;28;20432;-71
2022/05/09 08:34:02;;;;;;;6.93;4.53;;;;;;;20.98;30.52;102452.41;5079779;28;20204;-73
2022/05/09 08:36:46;;;;;;;7.17;4.30;;;;;;;21.91;29.69;102451.66;5079054;28;20233;-73
2022/05/09 08:39:13;;;;;;;8.13;4.50;;;;;;;22.06;29.68;102449.75;5069125;28;20262;-74
2022/05/09 08:41:55;;;;;;;9.47;4.83;;;;;;;24.67;26.63;102440.19;5073334;28;20407;-74
2022/05/09 08:44:29;;;;;;;11.20;4.37;;;;;;;23.13;29.26;102444.81;5079627;28;20460;-73
2022/05/09 08:47:09;;;;;;;8.93;4.27;;;;;;;23.76;27.20;102437.53;5074938;28;20472;-73
2022/05/09 08:49:45;;;;;;;7.20;4.33;;;;;;;24.80;26.16;102428.34;5057582;28;20506;-72
2022/05/09 08:52:42;;;;;;;9.27;4.90;;;;;;;26.20;24.63;102433.66;5073111;28;20466;-74
2022/05/09 08:55:09;;;;;;;4.90;4.10;;;;;;;23.71;28.33;102442.06;5076277;28;20410;-74
2022/05/09 08:57:39;;;;;;;8.97;4.00;;;;;;;24.04;27.95;102439.69;5076534;28;20433;-73
2022/05/09 09:00:14;;;;;;;10.50;4.40;;;;;;;23.94;27.59;102441.66;5077018;28;20427;-75
2022/05/09 09:02:43;;;;;;;8.37;4.60;;;;;;;24.60;27.03;102434.09;5075907;28;20874;-73
2022/05/09 09:05:11;;;;;;;9.53;4.50;;;;;;;24.69;27.24;102435.69;5071791;28;20438;-71
2022/05/09 09:07:49;;;;;;;6.83;4.90;;;;;;;22.27;29.99;102446.84;5075436;28;20415;-73
2022/05/09 09:10:42;;;;;;;5.33;4.10;;;;;;;22.48;29.96;102440.41;5066988;28;20742;-74
2022/05/09 09:13:08;;;;;;;8.63;4.13;;;;;;;25.21;26.30;102425.56;5064986;28;20461;-74
2022/05/09 09:15:53;;;;;;;9.97;5.27;;;;;;;25.16;26.11;102430.16;5073887;28;20443;-73
2022/05/09 09:18:35;;;;;;;5.80;3.87;;;;;;;23.55;27.78;102436.13;5071727;28;20203;-73
2022/05/09 09:21:00;;;;;;;6.30;3.93;;;;;;;24.86;26.14;102427.31;5065368;28;20689;-73
2022/05/09 09:23:47;;;;;;;6.37;4.37;;;;;;;25.95;24.78;102422.75;5075005;28;20545;-75
2022/05/09 09:26:40;;;;;;;6.77;3.93;;;;;;;24.93;25.90;102422.72;5066914;28;20188;-74
2022/05/09 09:29:19;;;;;;;10.70;4.20;;;;;;;23.64;27.16;102417.34;5076117;28;20430;-74
2022/05/09 09:31:47;;;;;;;9.47;4.43;;;;;;;24.59;26.91;102412.78;5057635;28;20459;-71
2022/05/09 09:34:27;;;;;;;10.20;5.20;;;;;;;24.16;26.93;102415.47;5057763;28;20514;-75
2022/05/09 09:37:11;;;;;;;6.30;3.83;;;;;;;25.46;25.28;102411.63;5070103;28;20840;-72
2022/05/09 09:39:37;;;;;;;5.77;4.17;;;;;;;26.15;24.33;102411.53;5063186;28;20472;-74
2022/05/09 09:42:02;;;;;;;7.57;4.90;;;;;;;25.82;24.92;102404.41;5061843;28;20768;-73
2022/05/09 09:44:29;;;;;;;5.67;3.80;;;;;;;26.49;22.87;102395.31;5072160;28;20275;-74
2022/05/09 09:47:18;;;;;;;8.73;3.97;;;;;;;23.47;26.14;102409.66;5072199;28;20629;-78
2022/05/09 09:49:44;;;;;;;5.77;4.03;;;;;;;24.83;24.51;102406.91;5076579;28;20860;-73
2022/05/09 09:52:21;;;;;;;7.17;4.33;;;;;;;24.97;25.44;102411.91;5076873;28;20470;-73
2022/05/09 09:55:07;;;;;;;9.80;4.30;;;;;;;26.36;22.97;102400.19;5077821;28;20411;-74
2022/05/09 09:57:38;;;;;;;6.33;4.07;;;;;;;27.38;22.10;102396.91;5077268;28;20472;-72
2022/05/09 10:00:37;;;;;;;7.70;3.80;;;;;;;24.07;25.84;102404.13;5078272;28;20720;-73
2022/05/09 10:03:21;;;;;;;7.70;4.20;;;;;;;24.07;26.14;102397.00;5078280;28;20430;-73
2022/05/09 10:05:47;;;;;;;5.77;4.33;;;;;;;26.62;23.00;102385.13;5077963;28;20877;-72
2022/05/09 10:08:24;;;;;;;5.10;4.03;;;;;;;26.32;22.34;102386.97;5077486;28;20430;-73
2022/05/09 10:11:03;;;;;;;5.50;4.20;;;;;;;22.32;25.63;102391.84;5077617;28;20652;-72
2022/05/09 10:13:41;;;;;;;7.33;4.10;;;;;;;24.43;25.05;102385.59;5077921;28;20454;-73
2022/05/09 10:16:11;;;;;;;5.53;4.10;;;;;;;23.67;25.54;102388.00;5078442;28;20454;-73
2022/05/09 10:18:37;;;;;;;7.70;4.60;;;;;;;25.26;24.19;102382.75;5078286;28;20808;-73
2022/05/09 10:21:15;;;;;;;6.23;3.90;;;;;;;22.03;28.00;102378.97;5078009;28;20411;-73
2022/05/09 10:26:33;;;;;;;6.33;4.43;;;;;;;24.70;24.77;102371.63;5078110;28;20441;-73
2022/05/09 10:29:04;;;;;;;6.80;4.40;;;;;;;25.07;23.08;102367.19;5078175;28;20421;-72
2022/05/09 10:31:35;;;;;;;6.63;4.63;;;;;;;26.20;21.64;102367.69;5077201;28;20538;-73
2022/05/09 10:34:07;;;;;;;8.10;4.83;;;;;;;26.86;21.59;102359.41;5077863;28;20442;-72
2022/05/09 10:36:45;;;;;;;7.17;4.37;;;;;;;25.86;22.67;102360.63;5078089;28;20458;-73
2022/05/09 10:39:17;;;;;;;8.10;4.67;;;;;;;24.78;24.75;102359.94;5077231;28;20934;-72
2022/05/09 10:41:44;;;;;;;6.90;4.57;;;;;;;26.27;22.84;102354.16;5070832;28;20430;-72
2022/05/09 10:44:28;;;;;;;7.37;4.57;;;;;;;25.16;23.28;102353.63;5076745;28;20872;-71
2022/05/09 10:47:01;;;;;;;11.03;4.67;;;;;;;26.22;22.14;102344.47;5076766;28;20714;-71
2022/05/09 10:49:47;;;;;;;7.87;4.23;;;;;;;26.68;22.05;102352.84;5077568;28;20710;-71
2022/05/09 10:52:28;;;;;;;7.50;4.73;;;;;;;24.63;24.35;102363.84;5077598;28;20467;-71
2022/05/09 10:55:18;;;;;;;10.13;6.23;;;;;;;25.17;23.98;102360.72;5077493;28;20410;-71
2022/05/09 10:57:50;;;;;;;6.33;4.50;;;;;;;23.07;27.08;102357.13;5076960;28;20441;-71
2022/05/09 11:00:20;;;;;;;9.33;4.43;;;;;;;21.63;29.33;102350.22;5077210;28;20416;-71
2022/05/09 11:03:08;;;;;;;9.50;4.83;;;;;;;24.81;25.33;102341.19;5077454;28;20425;-70
2022/05/09 11:06:01;;;;;;;6.33;4.50;;;;;;;24.09;25.95;102333.03;5077523;28;20560;-71
2022/05/09 11:08:29;;;;;;;5.50;4.40;;;;;;;24.80;24.91;102326.06;5077604;28;20738;-71
2022/05/09 11:11:08;;;;;;;9.43;4.73;;;;;;;23.19;26.89;102340.97;5077508;28;20519;-71
2022/05/09 11:14:14;;;;;;;6.03;4.30;;;;;;;23.84;25.75;102315.75;5077521;28;20469;-70
2022/05/09 11:16:50;;;;;;;9.03;4.67;;;;;;;23.11;26.55;102320.66;5076816;28;20454;-70
2022/05/09 11:19:58;;;;;;;10.43;4.60;;;;;;;21.10;28.87;102318.84;5080483;28;20421;-71
2022/05/09 11:22:35;;;;;;;7.40;4.80;;;;;;;23.43;25.75;102300.63;5080002;28;20423;-71
2022/05/09 11:25:07;;;;;;;8.17;5.40;;;;;;;24.07;25.60;102287.75;5080291;28;20651;-71
2022/05/09 11:27:44;;;;;;;6.60;4.00;;;;;;;24.51;24.97;102283.19;5080932;28;20509;-72
2022/05/09 11:30:39;;;;;;;14.67;5.07;;;;;;;23.95;25.31;102291.59;5080153;28;20479;-73
2022/05/09 11:33:32;;;;;;;10.87;4.27;;;;;;;22.73;25.94;102304.47;5080110;28;20473;-72
2022/05/09 11:36:04;;;;;;;5.80;4.07;;;;;;;23.47;25.08;102287.19;5080758;28;20439;-72
2022/05/09 11:38:39;;;;;;;10.53;4.97;;;;;;;24.77;23.98;102286.16;5079810;28;20434;-74
2022/05/09 11:41:26;;;;;;;7.23;4.03;;;;;;;23.08;24.99;102294.13;5080846;28;20410;-72
2022/05/09 11:44:12;;;;;;;17.77;4.63;;;;;;;23.00;24.90;102280.97;5080847;28;20411;-71
2022/05/09 11:46:41;;;;;;;6.27;4.50;;;;;;;22.54;25.38;102278.19;5082864;28;20872;-73